Time;durP1;ratioP1;P1;durP2;ratioP2;P2;SDS_P1;SDS_P2;PMS_P1;PMS_P2;Temp;Humidity;BMP_temperature;BMP_pressure;BME280_temperature;BME280_humidity;BME280_pressure;Samples;Min_cycle;Max_cycle;Signal;HPM_P1;HPM_P2
2022/03/07 00:01:38;;;;;;;11.70;6.47;;;;;;;2.80;54.84;102670.84;5240724;28;21412;-74
2022/03/07 00:04:09;;;;;;;9.30;6.70;;;;;;;2.59;55.39;102677.69;5238649;28;20557;-75
2022/03/07 00:06:40;;;;;;;12.47;7.23;;;;;;;2.63;55.57;102669.97;5242565;28;20109;-74
2022/03/07 00:09:12;;;;;;;10.00;8.03;;;;;;;2.42;56.10;102675.91;5238737;28;20087;-74
2022/03/07 00:11:44;;;;;;;11.10;7.37;;;;;;;2.30;56.03;102675.00;5235690;28;20034;-74
2022/03/07 00:14:15;;;;;;;11.53;6.83;;;;;;;2.30;56.33;102669.81;5228430;28;20290;-74
2022/03/07 00:16:47;;;;;;;11.93;7.80;;;;;;;2.44;55.68;102658.69;5230652;28;20091;-75
2022/03/07 00:19:19;;;;;;;9.37;6.97;;;;;;;2.40;56.43;102667.28;5230578;28;20037;-74
2022/03/07 00:21:50;;;;;;;12.13;7.83;;;;;;;2.27;56.44;102656.03;5245630;28;20025;-74
2022/03/07 00:24:21;;;;;;;10.83;7.67;;;;;;;2.30;56.58;102671.56;5249474;28;20286;-74
2022/03/07 00:26:52;;;;;;;10.93;7.43;;;;;;;2.46;56.31;102672.47;5249965;28;20057;-74
2022/03/07 00:29:24;;;;;;;9.83;6.97;;;;;;;2.21;56.38;102666.34;5251242;28;20025;-74
2022/03/07 00:31:55;;;;;;;13.17;8.17;;;;;;;2.21;56.76;102671.50;5249759;28;20036;-74
2022/03/07 00:34:26;;;;;;;9.90;7.10;;;;;;;2.53;55.61;102673.38;5251153;28;20040;-74
2022/03/07 00:36:57;;;;;;;13.03;8.67;;;;;;;2.31;56.49;102673.28;5248907;28;20705;-74
2022/03/07 00:39:29;;;;;;;9.63;7.17;;;;;;;2.44;56.03;102683.69;5251249;28;20484;-74
2022/03/07 00:42:00;;;;;;;11.93;7.57;;;;;;;2.47;55.36;102678.53;5250325;28;20488;-74
2022/03/07 00:44:31;;;;;;;10.33;7.77;;;;;;;2.41;55.97;102682.81;5236839;28;20030;-74
2022/03/07 00:47:03;;;;;;;11.33;7.23;;;;;;;2.52;55.61;102672.50;5229902;28;20028;-74
2022/03/07 00:49:34;;;;;;;9.93;6.77;;;;;;;2.36;56.17;102681.94;5229418;28;20030;-74
2022/03/07 00:52:06;;;;;;;10.30;8.07;;;;;;;2.33;56.13;102681.91;5247608;28;20032;-74
2022/03/07 00:54:37;;;;;;;10.53;7.70;;;;;;;2.32;56.24;102674.16;5251179;28;20506;-75
2022/03/07 00:57:08;;;;;;;12.53;6.67;;;;;;;2.15;57.04;102675.78;5250313;28;20115;-74
2022/03/07 00:59:39;;;;;;;13.33;6.53;;;;;;;2.29;56.38;102677.56;5250657;28;20040;-74
2022/03/07 01:02:11;;;;;;;14.13;7.33;;;;;;;2.24;56.36;102679.28;5250393;28;20485;-74
2022/03/07 01:04:43;;;;;;;10.87;7.40;;;;;;;2.00;57.11;102683.47;5254830;28;20487;-74
2022/03/07 01:07:14;;;;;;;11.30;7.33;;;;;;;2.17;56.82;102680.97;5271039;28;20043;-74
2022/03/07 01:09:45;;;;;;;10.13;7.53;;;;;;;1.99;57.29;102680.00;5271462;28;20025;-73
2022/03/07 01:12:16;;;;;;;10.90;6.87;;;;;;;2.00;57.30;102686.03;5249747;28;20041;-74
2022/03/07 01:14:48;;;;;;;12.97;8.37;;;;;;;1.90;57.83;102693.72;5250160;28;20021;-74
2022/03/07 01:17:20;;;;;;;12.47;8.30;;;;;;;1.89;57.98;102691.13;5249756;28;20561;-74
2022/03/07 01:19:51;;;;;;;11.83;7.87;;;;;;;1.98;57.84;102680.00;5249309;28;20482;-74
2022/03/07 01:22:22;;;;;;;11.80;8.03;;;;;;;1.87;58.51;102688.53;5249372;28;20523;-74
2022/03/07 01:24:53;;;;;;;13.60;8.20;;;;;;;1.86;58.54;102680.78;5250339;28;20442;-74
2022/03/07 01:27:25;;;;;;;12.07;7.83;;;;;;;1.87;57.98;102683.38;5249700;28;20017;-74
2022/03/07 01:29:56;;;;;;;12.50;8.53;;;;;;;1.83;58.30;102688.53;5249217;28;20032;-74
2022/03/07 01:32:27;;;;;;;15.97;8.30;;;;;;;1.72;58.42;102683.28;5250237;28;20021;-74
2022/03/07 01:34:59;;;;;;;12.40;8.13;;;;;;;1.80;58.32;102681.59;5248592;28;20163;-74
2022/03/07 01:37:30;;;;;;;11.87;7.70;;;;;;;1.77;58.31;102681.59;5245199;28;20037;-74
2022/03/07 01:40:02;;;;;;;12.40;9.30;;;;;;;1.84;58.24;102670.44;5248319;28;20044;-75
2022/03/07 01:42:34;;;;;;;10.87;7.83;;;;;;;1.71;58.12;102681.56;5249323;28;20383;-74
2022/03/07 01:45:14;;;;;;;11.03;8.30;;;;;;;1.97;57.79;102671.41;5248431;28;20287;-75
2022/03/07 01:47:47;;;;;;;11.17;8.23;;;;;;;1.84;58.45;102683.38;5249916;28;20021;-75
2022/03/07 01:50:20;;;;;;;12.77;8.53;;;;;;;1.80;58.51;102677.31;5248322;28;20301;-74
2022/03/07 01:52:53;;;;;;;14.13;8.60;;;;;;;1.64;58.99;102676.31;5249690;28;20279;-74
2022/03/07 01:55:25;;;;;;;11.40;8.67;;;;;;;1.54;59.21;102671.94;5249628;28;20280;-75
2022/03/07 01:57:57;;;;;;;12.10;8.93;;;;;;;1.62;59.12;102662.56;5249672;28;20310;-74
2022/03/07 02:00:28;;;;;;;10.17;8.20;;;;;;;1.47;59.28;102667.59;5249252;28;20241;-75
2022/03/07 02:03:01;;;;;;;9.07;7.57;;;;;;;1.49;59.20;102671.91;5259710;22;20013;-74
2022/03/07 02:05:32;;;;;;;15.20;8.87;;;;;;;1.53;59.28;102667.63;5246686;28;20045;-74
2022/03/07 02:08:04;;;;;;;13.43;8.20;;;;;;;1.40;59.51;102659.78;5249087;28;20832;-73
2022/03/07 02:10:36;;;;;;;12.63;8.87;;;;;;;1.55;59.43;102666.78;5250511;28;20035;-74
2022/03/07 02:13:15;;;;;;;12.00;7.87;;;;;;;1.54;59.32;102669.34;5248524;28;20029;-73
2022/03/07 02:15:53;;;;;;;10.67;7.47;;;;;;;1.59;59.26;102666.84;5249308;28;20290;-73
2022/03/07 02:18:25;;;;;;;10.93;8.20;;;;;;;1.47;59.91;102665.88;5249428;28;20359;-74
2022/03/07 02:21:04;;;;;;;12.17;8.87;;;;;;;1.60;59.70;102659.09;5248211;28;20370;-73
2022/03/07 02:23:36;;;;;;;12.43;8.53;;;;;;;1.50;59.63;102659.88;5249461;28;20025;-73
2022/03/07 02:26:10;;;;;;;10.87;8.17;;;;;;;1.46;59.79;102661.56;5249324;28;20306;-73
2022/03/07 02:28:43;;;;;;;13.77;8.23;;;;;;;1.47;59.81;102662.44;5247932;28;20290;-71
2022/03/07 02:31:20;;;;;;;10.17;8.73;;;;;;;1.47;59.99;102652.97;5249550;28;20821;-73
2022/03/07 02:33:51;;;;;;;10.17;7.20;;;;;;;1.38;60.12;102652.91;5248463;28;20308;-73
2022/03/07 02:36:22;;;;;;;10.23;7.77;;;;;;;1.35;60.35;102658.00;5247252;28;20317;-73
2022/03/07 02:38:54;;;;;;;11.17;7.40;;;;;;;1.27;60.40;102642.47;5252861;28;20078;-73
2022/03/07 02:41:25;;;;;;;12.17;8.30;;;;;;;1.32;60.43;102654.56;5253441;28;20029;-73
2022/03/07 02:43:56;;;;;;;10.77;8.47;;;;;;;1.32;59.99;102649.41;5252796;28;20135;-74
2022/03/07 02:46:28;;;;;;;10.83;9.20;;;;;;;1.37;60.31;102654.59;5252938;28;20037;-73
2022/03/07 02:48:59;;;;;;;12.13;9.37;;;;;;;1.23;61.01;102659.66;5252391;28;20053;-73
2022/03/07 02:51:31;;;;;;;12.60;8.87;;;;;;;1.38;60.60;102665.81;5252801;28;20126;-73
2022/03/07 02:54:03;;;;;;;13.07;8.53;;;;;;;1.20;60.84;102660.47;5253376;28;20033;-73
2022/03/07 02:56:34;;;;;;;14.73;8.70;;;;;;;1.23;60.74;102659.66;5252755;28;20808;-74
2022/03/07 02:59:05;;;;;;;11.57;8.40;;;;;;;1.18;60.72;102644.13;5252923;28;20033;-73
2022/03/07 03:01:36;;;;;;;13.70;9.57;;;;;;;1.14;61.07;102650.09;5253017;28;20025;-74
2022/03/07 03:04:08;;;;;;;12.03;9.70;;;;;;;1.15;61.29;102646.66;5251264;28;20045;-72
2022/03/07 03:06:39;;;;;;;12.17;9.07;;;;;;;1.14;61.03;102644.94;5253097;28;20060;-73
2022/03/07 03:09:10;;;;;;;13.60;9.30;;;;;;;1.20;61.18;102649.31;5252701;28;20075;-74
2022/03/07 03:11:42;;;;;;;15.57;8.73;;;;;;;1.06;61.58;102642.31;5252871;28;20028;-75
2022/03/07 03:14:13;;;;;;;16.63;9.97;;;;;;;1.27;60.72;102645.94;5252483;28;20052;-74
2022/03/07 03:16:44;;;;;;;12.67;9.10;;;;;;;1.12;61.08;102644.06;5252688;28;20048;-73
2022/03/07 03:19:15;;;;;;;14.77;9.80;;;;;;;1.09;61.46;102644.03;5250469;28;20383;-74
2022/03/07 03:21:47;;;;;;;13.53;8.93;;;;;;;1.07;61.15;102648.31;5252912;28;20772;-74
2022/03/07 03:24:18;;;;;;;12.10;9.10;;;;;;;1.07;61.08;102656.94;5251113;28;20499;-73
2022/03/07 03:26:49;;;;;;;19.30;11.70;;;;;;;1.08;61.29;102658.66;5251692;28;20024;-74
2022/03/07 03:29:21;;;;;;;14.17;9.33;;;;;;;0.93;61.70;102661.06;5250490;28;20082;-74
2022/03/07 03:31:52;;;;;;;13.57;9.40;;;;;;;1.03;61.70;102651.72;5251054;28;20025;-74
2022/03/07 03:34:24;;;;;;;12.07;9.70;;;;;;;0.77;61.95;102648.03;5251449;28;20083;-73
2022/03/07 03:36:55;;;;;;;15.47;10.00;;;;;;;0.78;62.01;102654.06;5251923;28;20029;-73
2022/03/07 03:39:26;;;;;;;16.13;9.83;;;;;;;0.78;62.28;102659.22;5251078;28;20083;-74
2022/03/07 03:41:58;;;;;;;16.43;9.87;;;;;;;0.74;61.99;102652.28;5251020;28;20040;-73
2022/03/07 03:44:29;;;;;;;14.60;9.30;;;;;;;0.82;62.41;102655.81;5252228;28;20037;-73
2022/03/07 03:47:00;;;;;;;17.03;10.07;;;;;;;0.79;61.92;102660.94;5251864;28;20025;-74
2022/03/07 03:49:31;;;;;;;13.20;8.87;;;;;;;0.68;62.32;102663.41;5249986;28;20036;-74
2022/03/07 03:52:03;;;;;;;15.77;9.60;;;;;;;0.64;62.45;102669.38;5250255;28;20032;-74
2022/03/07 03:54:35;;;;;;;19.07;9.60;;;;;;;0.57;62.71;102660.69;5252169;28;20025;-74
2022/03/07 03:57:06;;;;;;;16.60;10.40;;;;;;;0.65;62.28;102656.50;5251307;28;20029;-73
2022/03/07 03:59:37;;;;;;;15.70;9.97;;;;;;;0.57;62.55;102663.28;5251638;28;20052;-73
2022/03/07 04:02:08;;;;;;;11.77;10.00;;;;;;;0.58;62.43;102671.03;5251966;28;20020;-74
2022/03/07 04:04:40;;;;;;;17.57;9.77;;;;;;;0.63;62.29;102662.50;5252466;28;20041;-74
2022/03/07 04:07:12;;;;;;;14.53;9.33;;;;;;;0.53;62.60;102672.69;5252048;28;20627;-74
2022/03/07 04:09:43;;;;;;;13.83;10.10;;;;;;;0.51;62.91;102665.81;5250116;28;20029;-74
2022/03/07 04:12:14;;;;;;;14.90;10.53;;;;;;;0.42;62.71;102657.09;5250564;28;20072;-74
2022/03/07 04:14:45;;;;;;;16.87;10.30;;;;;;;0.54;63.22;102663.25;5249541;28;20048;-74
2022/03/07 04:17:17;;;;;;;14.67;10.00;;;;;;;0.53;62.86;102671.81;5251455;28;20041;-74
2022/03/07 04:19:48;;;;;;;12.27;10.03;;;;;;;0.48;62.97;102659.75;5250702;28;20025;-74
2022/03/07 04:22:19;;;;;;;10.90;8.63;;;;;;;0.56;62.58;102664.97;5250046;28;20090;-74
2022/03/07 04:24:50;;;;;;;12.80;9.73;;;;;;;0.61;62.59;102659.91;5251473;28;20529;-74
2022/03/07 04:27:22;;;;;;;13.97;10.27;;;;;;;0.51;63.36;102669.22;5254025;28;20132;-74
2022/03/07 04:29:54;;;;;;;11.93;9.07;;;;;;;0.58;63.19;102665.00;5250086;28;20448;-74
2022/03/07 04:32:26;;;;;;;15.07;10.13;;;;;;;0.49;62.99;102670.91;5251140;28;20035;-74
2022/03/07 04:34:57;;;;;;;14.27;9.70;;;;;;;0.54;62.87;102658.09;5249959;28;20275;-71
2022/03/07 04:37:29;;;;;;;12.57;9.80;;;;;;;0.48;63.47;102661.47;5251132;28;20021;-74
2022/03/07 04:40:01;;;;;;;11.90;10.03;;;;;;;0.46;63.39;102660.56;5250081;28;20024;-74
2022/03/07 04:42:32;;;;;;;14.30;9.40;;;;;;;0.35;63.59;102663.88;5251117;28;20021;-74
2022/03/07 04:45:04;;;;;;;12.10;9.23;;;;;;;0.45;63.26;102664.88;5250451;28;20283;-74
2022/03/07 04:47:35;;;;;;;14.80;10.27;;;;;;;0.39;63.90;102659.63;5250990;28;20454;-74
2022/03/07 04:50:07;;;;;;;14.87;9.43;;;;;;;0.32;64.04;102662.97;5249538;28;20032;-74
2022/03/07 04:52:41;;;;;;;13.37;9.90;;;;;;;0.34;64.02;102661.28;5251214;28;20087;-74
2022/03/07 04:55:13;;;;;;;14.55;10.65;;;;;;;0.35;64.00;102657.84;5249225;28;20028;-74
2022/03/07 04:57:44;;;;;;;19.57;11.50;;;;;;;0.27;64.08;102659.47;5250761;28;20033;-74
2022/03/07 05:00:16;;;;;;;15.70;10.40;;;;;;;0.37;64.13;102666.47;5247887;28;20025;-74
2022/03/07 05:02:48;;;;;;;16.10;10.43;;;;;;;0.35;63.51;102657.84;5249795;28;20472;-74
2022/03/07 05:05:20;;;;;;;13.77;9.90;;;;;;;0.30;63.57;102669.81;5249163;28;20303;-74
2022/03/07 05:07:52;;;;;;;16.13;10.50;;;;;;;0.42;62.87;102658.81;5249232;28;20151;-74
2022/03/07 05:10:24;;;;;;;14.60;11.00;;;;;;;0.36;63.36;102664.75;5249093;28;20279;-74
2022/03/07 05:12:55;;;;;;;12.07;10.03;;;;;;;0.35;63.10;102665.59;5249761;28;20295;-74
2022/03/07 05:15:26;;;;;;;14.73;9.53;;;;;;;0.38;64.01;102663.06;5248730;28;20120;-74
2022/03/07 05:17:58;;;;;;;12.47;10.37;;;;;;;0.24;63.95;102661.16;5249605;28;20120;-74
2022/03/07 05:20:30;;;;;;;14.80;10.50;;;;;;;0.45;63.32;102661.44;5249696;28;20627;-74
2022/03/07 05:23:01;;;;;;;13.70;10.17;;;;;;;0.41;63.88;102657.94;5249278;28;20029;-74
2022/03/07 05:25:32;;;;;;;17.60;11.10;;;;;;;0.10;64.27;102636.94;5247968;28;20028;-73
2022/03/07 05:28:04;;;;;;;14.63;10.33;;;;;;;0.10;64.14;102647.25;5246216;28;20102;-74
2022/03/07 05:30:35;;;;;;;14.03;9.70;;;;;;;0.35;63.59;102650.13;5249357;28;20021;-74
2022/03/07 05:33:06;;;;;;;17.87;10.10;;;;;;;0.43;63.37;102660.53;5249153;28;20487;-74
2022/03/07 05:35:38;;;;;;;15.73;10.73;;;;;;;0.32;63.21;102658.69;5247729;28;20471;-75
2022/03/07 05:38:09;;;;;;;14.33;10.27;;;;;;;0.34;63.99;102661.28;5250026;28;20489;-75
2022/03/07 05:40:40;;;;;;;15.47;11.10;;;;;;;0.21;63.95;102662.84;5250002;28;20047;-75
2022/03/07 05:43:13;;;;;;;15.73;11.17;;;;;;;0.14;64.57;102661.03;5249354;28;20473;-74
2022/03/07 05:45:44;;;;;;;15.27;10.90;;;;;;;0.12;64.07;102661.03;5243934;28;20472;-75
2022/03/07 05:48:15;;;;;;;18.33;11.53;;;;;;;0.07;65.17;102665.25;5229254;28;20315;-75
2022/03/07 05:50:47;;;;;;;16.63;10.33;;;;;;;0.02;64.99;102670.31;5241208;28;20033;-75
2022/03/07 05:53:21;;;;;;;14.40;12.00;;;;;;;0.13;64.88;102667.88;5248443;28;20116;-75
2022/03/07 05:55:53;;;;;;;14.85;10.75;;;;;;;0.13;65.05;102667.00;5248295;28;20035;-75
2022/03/07 05:58:25;;;;;;;15.27;11.40;;;;;;;0.05;65.14;102656.63;5248367;28;20769;-74
2022/03/07 06:00:56;;;;;;;15.73;10.97;;;;;;;0.26;64.50;102668.06;5249122;28;20280;-74
2022/03/07 06:03:27;;;;;;;14.73;11.33;;;;;;;0.08;64.76;102672.13;5235031;28;20129;-75
2022/03/07 06:06:00;;;;;;;15.53;11.47;;;;;;;0.05;64.99;102680.69;5241414;28;20048;-74
2022/03/07 06:08:31;;;;;;;14.07;10.70;;;;;;;0.16;64.69;102672.22;5228919;28;20044;-75
2022/03/07 06:11:02;;;;;;;18.27;11.27;;;;;;;0.03;64.76;102686.63;5229412;28;20280;-74
2022/03/07 06:13:34;;;;;;;33.23;12.17;;;;;;;-0.07;65.06;102681.34;5224829;28;20377;-76
2022/03/07 06:16:06;;;;;;;17.33;12.57;;;;;;;-0.05;65.45;102684.81;5212843;28;20112;-80
2022/03/07 06:18:37;;;;;;;15.33;12.10;;;;;;;-0.11;65.36;102697.63;5251108;28;20028;-81
2022/03/07 06:21:08;;;;;;;17.60;12.30;;;;;;;-0.14;65.44;102697.56;5253523;28;20131;-82
2022/03/07 06:23:42;;;;;;;17.37;11.13;;;;;;;-0.06;65.44;102687.38;5241902;28;20041;-75
2022/03/07 06:26:13;;;;;;;17.07;12.27;;;;;;;0.02;65.58;102700.38;5221752;28;20711;-75
2022/03/07 06:28:45;;;;;;;16.07;11.23;;;;;;;-0.03;65.43;102698.59;5216992;28;20372;-75
2022/03/07 06:31:16;;;;;;;17.57;11.37;;;;;;;0.11;65.54;102705.66;5244994;28;20091;-75
2022/03/07 06:33:47;;;;;;;13.90;11.90;;;;;;;0.09;65.63;102715.94;5224038;28;20140;-74
2022/03/07 06:36:19;;;;;;;16.37;12.40;;;;;;;0.05;65.44;102718.44;5239798;28;20033;-76
2022/03/07 06:38:50;;;;;;;18.40;12.40;;;;;;;-0.02;65.74;102709.78;5251404;28;20053;-76
2022/03/07 06:41:21;;;;;;;16.10;11.50;;;;;;;0.07;65.35;102697.00;5249800;28;20033;-77
2022/03/07 06:43:53;;;;;;;14.97;11.43;;;;;;;0.06;65.55;102720.19;5227077;28;20100;-76
2022/03/07 06:46:24;;;;;;;15.77;11.97;;;;;;;0.10;65.48;102714.22;5212968;28;20038;-76
2022/03/07 06:48:55;;;;;;;16.30;12.27;;;;;;;0.07;65.53;102715.03;5211031;28;20030;-76
2022/03/07 06:51:26;;;;;;;16.17;13.97;;;;;;;0.02;65.88;102721.84;5219557;28;20029;-76
2022/03/07 06:53:58;;;;;;;18.30;13.13;;;;;;;0.05;65.98;102715.88;5226602;28;20042;-77
2022/03/07 06:56:29;;;;;;;17.73;12.73;;;;;;;0.08;65.73;102721.06;5232398;28;20033;-73
2022/03/07 06:59:00;;;;;;;22.67;13.37;;;;;;;0.04;66.18;102719.28;5223355;28;20077;-70
2022/03/07 07:01:32;;;;;;;16.13;12.77;;;;;;;0.18;65.97;102727.22;5223169;28;20029;-72
2022/03/07 07:04:03;;;;;;;16.33;12.67;;;;;;;0.18;66.08;102727.22;5220795;28;20436;-74
2022/03/07 07:06:35;;;;;;;17.13;12.87;;;;;;;0.19;65.82;102719.50;5217742;28;20032;-78
2022/03/07 07:09:06;;;;;;;13.07;11.67;;;;;;;0.32;65.47;102711.94;5220864;28;20663;-74
2022/03/07 07:11:38;;;;;;;18.63;13.77;;;;;;;0.39;65.55;102718.03;5222373;28;20285;-74
2022/03/07 07:14:09;;;;;;;16.07;13.37;;;;;;;0.40;65.39;102717.22;5220882;28;20030;-75
2022/03/07 07:16:40;;;;;;;17.30;12.53;;;;;;;0.43;64.96;102719.84;5223458;28;20041;-76
2022/03/07 07:19:11;;;;;;;16.73;12.53;;;;;;;0.69;64.43;102720.16;5226706;28;20033;-73
2022/03/07 07:21:43;;;;;;;16.07;12.20;;;;;;;0.47;65.37;102714.72;5221430;28;20116;-73
2022/03/07 07:24:14;;;;;;;17.57;12.53;;;;;;;0.66;65.15;102719.25;5230009;28;20029;-73
2022/03/07 07:26:45;;;;;;;18.03;12.03;;;;;;;0.74;64.72;102720.22;5228890;28;20075;-73
2022/03/07 07:29:17;;;;;;;15.83;12.37;;;;;;;0.77;64.59;102711.66;5227014;28;20033;-73
2022/03/07 07:31:48;;;;;;;17.67;12.77;;;;;;;0.72;65.05;102701.28;5220960;28;20083;-73
2022/03/07 07:34:21;;;;;;;14.67;12.17;;;;;;;0.90;63.96;102713.53;5216339;28;20034;-73
2022/03/07 07:36:52;;;;;;;15.83;12.07;;;;;;;1.04;63.79;102712.81;5220373;28;20040;-75
2022/03/07 07:39:24;;;;;;;18.50;11.90;;;;;;;1.07;63.86;102713.72;5225841;28;20775;-75
2022/03/07 07:41:56;;;;;;;15.13;11.20;;;;;;;1.17;63.14;102712.06;5221864;28;20038;-75
2022/03/07 07:44:27;;;;;;;15.10;11.73;;;;;;;1.22;63.03;102708.69;5225789;28;20018;-74
2022/03/07 07:46:58;;;;;;;12.90;11.60;;;;;;;1.35;62.56;102726.00;5220861;28;20034;-73
2022/03/07 07:49:31;;;;;;;13.27;11.53;;;;;;;1.54;62.34;102727.06;5217907;28;20033;-73
2022/03/07 07:52:03;;;;;;;15.27;11.50;;;;;;;1.83;61.82;102727.28;5224647;28;20042;-72
2022/03/07 07:54:34;;;;;;;16.47;10.57;;;;;;;2.39;59.81;102723.31;5242134;28;20337;-73
2022/03/07 07:57:07;;;;;;;18.77;11.83;;;;;;;2.98;58.17;102720.09;5234988;28;20303;-80
2022/03/07 07:59:39;;;;;;;17.83;11.03;;;;;;;3.51;57.08;102729.66;5241991;28;20522;-77
2022/03/07 08:02:10;;;;;;;12.43;9.60;;;;;;;3.73;55.92;102712.41;5241604;28;20280;-77
2022/03/07 08:04:41;;;;;;;15.97;10.00;;;;;;;4.24;53.98;102732.19;5238498;28;20046;-77
2022/03/07 08:07:13;;;;;;;12.30;9.33;;;;;;;4.45;52.79;102725.19;5245470;28;20056;-73
2022/03/07 08:09:44;;;;;;;12.17;9.53;;;;;;;4.59;53.04;102725.16;5229095;28;20092;-73
2022/03/07 08:12:18;;;;;;;9.70;8.57;;;;;;;4.78;51.36;102722.47;5222087;28;20041;-72
2022/03/07 08:14:49;;;;;;;10.65;8.80;;;;;;;4.96;49.92;102723.22;5215474;28;20487;-72
2022/03/07 08:17:20;;;;;;;9.53;8.27;;;;;;;5.31;48.94;102727.34;5223007;28;20038;-77
2022/03/07 08:19:52;;;;;;;13.73;9.30;;;;;;;5.76;47.97;102731.31;5226321;28;20087;-73
2022/03/07 08:22:23;;;;;;;14.23;8.20;;;;;;;6.49;46.88;102726.28;5228308;28;20364;-74
2022/03/07 08:24:54;;;;;;;11.20;7.93;;;;;;;7.23;44.40;102719.19;5235418;28;20068;-73
2022/03/07 08:27:25;;;;;;;17.73;8.17;;;;;;;7.96;42.77;102719.72;5235811;28;20029;-72
2022/03/07 08:29:57;;;;;;;10.03;7.43;;;;;;;8.18;41.89;102724.53;5229170;28;20041;-72
2022/03/07 08:32:28;;;;;;;9.33;7.00;;;;;;;9.00;39.92;102723.75;5229333;28;20626;-72
2022/03/07 08:34:59;;;;;;;10.67;7.10;;;;;;;9.30;38.67;102730.91;5242915;28;20037;-72
2022/03/07 08:37:32;;;;;;;9.10;7.07;;;;;;;9.76;38.66;102722.78;5232920;28;20029;-70
2022/03/07 08:40:05;;;;;;;11.50;6.30;;;;;;;9.88;37.48;102725.09;5233883;28;20056;-70
2022/03/07 08:42:37;;;;;;;8.63;7.33;;;;;;;9.84;36.28;102723.47;5220771;28;20017;-70
2022/03/07 08:45:10;;;;;;;14.03;6.87;;;;;;;9.64;36.57;102724.84;5223248;28;20036;-70
2022/03/07 08:47:41;;;;;;;13.07;6.73;;;;;;;9.78;36.15;102726.22;5242594;28;20017;-70
2022/03/07 08:50:12;;;;;;;11.57;6.33;;;;;;;10.66;35.51;102722.09;5237385;28;20036;-72
2022/03/07 08:52:45;;;;;;;11.20;6.53;;;;;;;11.33;35.15;102721.75;5240438;28;20529;-72
2022/03/07 08:55:16;;;;;;;8.03;6.57;;;;;;;11.19;34.12;102717.84;5233371;28;20037;-72
2022/03/07 08:57:48;;;;;;;11.30;5.50;;;;;;;11.04;33.30;102713.94;5245581;28;20026;-73
2022/03/07 09:00:19;;;;;;;11.23;6.13;;;;;;;11.01;33.24;102714.06;5226323;28;20100;-72
2022/03/07 09:02:51;;;;;;;7.63;6.20;;;;;;;11.53;33.11;102705.38;5242199;28;20017;-72
2022/03/07 09:05:22;;;;;;;9.93;6.57;;;;;;;11.84;32.61;102698.19;5230592;28;20041;-72
2022/03/07 09:07:53;;;;;;;9.73;5.67;;;;;;;12.50;31.79;102691.44;5237406;28;20033;-72
2022/03/07 09:10:24;;;;;;;8.60;6.30;;;;;;;13.43;29.79;102696.53;5227596;28;20025;-70
2022/03/07 09:12:56;;;;;;;7.53;4.90;;;;;;;12.71;29.87;102688.91;5227440;28;20070;-71
2022/03/07 09:15:27;;;;;;;8.83;6.10;;;;;;;13.14;29.47;102696.00;5231556;28;20163;-70
2022/03/07 09:17:59;;;;;;;9.23;5.13;;;;;;;13.78;28.95;102686.31;5210422;28;20036;-70
2022/03/07 09:20:30;;;;;;;10.17;5.17;;;;;;;14.40;27.98;102689.69;5227382;28;20502;-70
2022/03/07 09:23:01;;;;;;;11.73;5.27;;;;;;;14.20;27.18;102690.63;5226723;28;20090;-70
2022/03/07 09:25:33;;;;;;;10.77;3.83;;;;;;;15.46;26.37;102686.41;5245451;28;20100;-70
2022/03/07 09:28:05;;;;;;;14.20;4.90;;;;;;;13.72;26.63;102691.81;5234206;28;20025;-72
2022/03/07 09:30:36;;;;;;;7.23;4.33;;;;;;;13.66;27.21;102686.84;5232350;28;20029;-73
2022/03/07 09:33:07;;;;;;;7.90;5.23;;;;;;;13.16;26.92;102695.00;5226793;28;20013;-72
2022/03/07 09:35:39;;;;;;;7.30;3.50;;;;;;;13.09;27.45;102688.25;5248287;28;20048;-73
2022/03/07 09:38:10;;;;;;;6.53;4.10;;;;;;;13.29;27.55;102681.31;5241779;28;20021;-72
2022/03/07 09:40:42;;;;;;;7.20;3.90;;;;;;;13.98;27.06;102681.91;5227153;28;20024;-72
2022/03/07 09:43:14;;;;;;;9.90;4.43;;;;;;;14.15;26.05;102682.94;5227831;28;20033;-73
2022/03/07 09:45:46;;;;;;;6.97;4.27;;;;;;;14.29;26.33;102690.22;5233654;28;20039;-72
2022/03/07 09:48:20;;;;;;;7.07;4.83;;;;;;;14.45;25.77;102677.16;5228958;28;20104;-72
2022/03/07 09:50:52;;;;;;;6.05;3.80;;;;;;;15.12;25.29;102666.06;5227921;28;20033;-72
2022/03/07 09:53:23;;;;;;;7.03;3.43;;;;;;;14.78;24.88;102686.19;5230110;28;20033;-72
2022/03/07 09:55:55;;;;;;;7.13;3.50;;;;;;;14.93;25.48;102667.91;5243311;28;20014;-72
2022/03/07 09:58:27;;;;;;;5.83;3.60;;;;;;;15.06;25.03;102676.06;5237545;28;20067;-72
2022/03/07 10:01:10;;;;;;;7.23;3.70;;;;;;;14.72;25.23;102678.53;5228203;28;20544;-72
2022/03/07 10:03:42;;;;;;;8.30;3.70;;;;;;;14.23;24.99;102664.13;5230219;28;20033;-72
2022/03/07 10:06:18;;;;;;;5.60;3.07;;;;;;;14.67;25.62;102660.31;5241128;28;20397;-73
2022/03/07 10:08:54;;;;;;;6.30;3.27;;;;;;;14.87;25.15;102669.09;5241732;28;20033;-73
2022/03/07 10:11:28;;;;;;;5.63;3.23;;;;;;;15.49;24.89;102662.47;5228160;28;20457;-73
2022/03/07 10:14:02;;;;;;;4.40;3.45;;;;;;;16.59;23.91;102644.31;5242111;28;20029;-73
2022/03/07 10:16:43;;;;;;;10.07;3.60;;;;;;;16.89;22.86;102640.84;5240002;28;20028;-73
2022/03/07 10:19:15;;;;;;;7.77;3.20;;;;;;;15.19;23.75;102660.47;5231600;28;20064;-73
2022/03/07 10:21:50;;;;;;;7.93;3.57;;;;;;;15.78;23.69;102646.88;5226392;28;20105;-73
2022/03/07 10:24:33;;;;;;;6.87;3.53;;;;;;;15.27;24.25;102649.53;5238070;28;20033;-73
2022/03/07 10:27:04;;;;;;;11.47;3.03;;;;;;;14.01;24.84;102650.19;5233230;28;20029;-73
2022/03/07 10:29:46;;;;;;;8.70;2.93;;;;;;;14.56;25.37;102639.72;5220167;28;20032;-72
2022/03/07 10:32:18;;;;;;;5.60;3.17;;;;;;;12.51;26.76;102642.38;5225773;28;20037;-72
2022/03/07 10:34:49;;;;;;;4.83;2.60;;;;;;;12.81;27.06;102637.66;5240768;28;20375;-72
2022/03/07 10:37:32;;;;;;;7.43;3.97;;;;;;;13.94;27.00;102639.97;5246081;28;20025;-73
2022/03/07 10:40:08;;;;;;;7.03;2.70;;;;;;;13.94;26.50;102639.97;5222759;28;20029;-73
2022/03/07 10:42:45;;;;;;;6.63;3.37;;;;;;;13.25;27.14;102641.13;5225099;28;20353;-72
2022/03/07 10:45:16;;;;;;;5.17;3.10;;;;;;;12.58;27.55;102626.28;5225388;28;20034;-73
2022/03/07 10:47:53;;;;;;;8.53;3.00;;;;;;;12.25;28.89;102629.34;5245167;28;20357;-72
2022/03/07 10:50:26;;;;;;;5.83;2.87;;;;;;;11.33;29.79;102625.56;5234461;28;20046;-72
2022/03/07 10:53:02;;;;;;;6.43;3.53;;;;;;;10.52;31.09;102615.09;5228415;28;20473;-72
2022/03/07 10:55:34;;;;;;;6.80;3.43;;;;;;;10.69;30.71;102618.94;5227074;28;20029;-73
2022/03/07 10:58:12;;;;;;;11.33;3.60;;;;;;;10.14;31.47;102616.16;5235680;28;20025;-73
2022/03/07 11:00:48;;;;;;;6.30;4.07;;;;;;;9.98;32.46;102617.53;5213054;28;20030;-73
2022/03/07 11:03:22;;;;;;;5.83;3.50;;;;;;;9.60;32.74;102596.78;5233195;28;20148;-73
2022/03/07 11:05:53;;;;;;;10.02;3.97;;;;;;;9.71;33.31;102605.16;5235626;28;20025;-74
2022/03/07 11:08:25;;;;;;;5.50;3.27;;;;;;;9.91;33.30;102598.53;5241719;28;20026;-74
2022/03/07 11:10:59;;;;;;;4.67;3.77;;;;;;;9.47;33.76;102596.25;5230364;28;20499;-74
2022/03/07 11:13:31;;;;;;;5.70;3.50;;;;;;;9.11;34.57;102592.78;5228999;28;20018;-73
2022/03/07 11:16:04;;;;;;;6.80;3.43;;;;;;;9.60;33.63;102581.91;5218918;28;20026;-72
2022/03/07 11:18:35;;;;;;;5.87;3.70;;;;;;;9.97;33.79;102585.25;5218654;28;20084;-80
2022/03/07 11:21:06;;;;;;;5.63;3.47;;;;;;;9.94;33.04;102585.34;5221208;28;20096;-77
2022/03/07 11:23:38;;;;;;;11.77;3.90;;;;;;;9.77;33.19;102570.97;5224939;28;20018;-78
2022/03/07 11:26:09;;;;;;;6.17;3.30;;;;;;;9.92;33.26;102576.69;5220365;28;20088;-78
2022/03/07 11:28:41;;;;;;;6.67;4.10;;;;;;;9.31;34.11;102576.59;5219875;28;20026;-77
2022/03/07 11:31:23;;;;;;;8.17;4.47;;;;;;;9.82;33.82;102567.38;5221029;28;20151;-77
2022/03/07 11:33:56;;;;;;;7.13;3.87;;;;;;;9.76;33.54;102565.78;5219092;28;20017;-77
2022/03/07 11:36:29;;;;;;;4.63;3.60;;;;;;;9.56;33.69;102564.59;5221666;28;20018;-76
2022/03/07 11:39:02;;;;;;;6.80;4.03;;;;;;;9.74;34.12;102554.53;5226048;28;20037;-76
2022/03/07 11:41:36;;;;;;;7.77;3.60;;;;;;;9.73;33.72;102539.72;5222903;28;20082;-76
2022/03/07 11:44:14;;;;;;;5.88;4.28;;;;;;;9.92;34.15;102554.00;5221715;28;20554;-76
2022/03/07 11:46:51;;;;;;;6.17;4.00;;;;;;;9.90;33.17;102563.63;5220333;28;20033;-75